createdAt,value
2022-08-21T00:02:15.000Z,51.79
2022-08-21T00:04:48.245Z,52.18
2022-08-21T00:07:25.328Z,52.29
2022-08-21T00:09:54.357Z,52.17
2022-08-21T00:12:24.673Z,52.37
2022-08-21T00:14:58.112Z,52.52
2022-08-21T00:17:27.322Z,52.82
2022-08-21T00:19:55.680Z,52.98
2022-08-21T00:22:24.149Z,52.96
2022-08-21T00:24:52.862Z,53.32
2022-08-21T00:27:23.092Z,53.44
2022-08-21T00:29:51.532Z,53.73
2022-08-21T00:32:23.369Z,53.50
2022-08-21T00:34:52.078Z,53.84
2022-08-21T00:37:21.174Z,53.85
2022-08-21T00:39:49.789Z,53.97
2022-08-21T00:42:20.884Z,54.06
2022-08-21T00:44:52.606Z,54.33
2022-08-21T00:47:21.849Z,54.67
2022-08-21T00:49:50.685Z,54.66
2022-08-21T00:52:24.230Z,54.36
2022-08-21T00:54:54.129Z,54.85
2022-08-21T00:57:32.084Z,54.96
2022-08-21T01:00:09.240Z,55.17
2022-08-21T01:02:37.676Z,55.50
2022-08-21T01:05:07.505Z,55.52
2022-08-21T01:07:36.341Z,55.74
2022-08-21T01:10:05.949Z,55.96
2022-08-21T01:12:34.934Z,55.83
2022-08-21T01:15:08.278Z,55.78
2022-08-21T01:17:37.782Z,55.89
2022-08-21T01:20:11.148Z,55.76
2022-08-21T01:22:41.537Z,56.23
2022-08-21T01:25:13.161Z,56.22
2022-08-21T01:27:41.726Z,56.24
2022-08-21T01:30:16.778Z,56.14
2022-08-21T01:32:45.364Z,56.61
2022-08-21T01:35:15.179Z,56.32
2022-08-21T01:37:45.956Z,56.27
2022-08-21T01:40:19.278Z,56.43
2022-08-21T01:42:49.661Z,56.72
2022-08-21T01:45:18.561Z,56.77
2022-08-21T01:47:47.795Z,56.78
2022-08-21T01:50:21.134Z,56.88
2022-08-21T01:52:52.920Z,57.00
2022-08-21T01:55:22.920Z,56.86
2022-08-21T01:57:52.017Z,57.38
2022-08-21T02:00:24.893Z,57.41
2022-08-21T02:02:54.405Z,57.77
2022-08-21T02:05:23.109Z,57.93
2022-08-21T02:07:57.530Z,57.61
2022-08-21T02:10:30.736Z,58.11
2022-08-21T02:13:00.887Z,58.38
2022-08-21T02:15:31.181Z,58.40
2022-08-21T02:18:02.589Z,58.40
2022-08-21T02:20:37.433Z,58.32
2022-08-21T02:23:08.314Z,58.07
2022-08-21T02:25:37.466Z,58.71
2022-08-21T02:28:08.699Z,58.92
2022-08-21T02:30:41.145Z,59.08
2022-08-21T02:33:11.834Z,58.98
2022-08-21T02:35:43.561Z,58.96
2022-08-21T02:38:16.848Z,58.90
2022-08-21T02:40:50.919Z,59.50
2022-08-21T02:43:22.577Z,59.46
2022-08-21T02:45:52.436Z,59.79
2022-08-21T02:48:25.897Z,59.91
2022-08-21T02:50:57.561Z,60.39
2022-08-21T02:53:28.624Z,60.52
2022-08-21T02:56:00.796Z,60.81
2022-08-21T02:58:32.353Z,60.88
2022-08-21T03:01:01.146Z,60.89
2022-08-21T03:03:30.558Z,61.00
2022-08-21T03:05:59.171Z,61.11
2022-08-21T03:08:28.912Z,60.99
2022-08-21T03:10:57.940Z,61.12
2022-08-21T03:13:26.640Z,60.94
2022-08-21T03:15:55.105Z,61.19
2022-08-21T03:18:24.206Z,61.22
2022-08-21T03:20:53.294Z,61.35
2022-08-21T03:23:21.872Z,61.26
2022-08-21T03:25:52.095Z,61.24
2022-08-21T03:28:24.746Z,61.10
2022-08-21T03:30:54.226Z,61.24
2022-08-21T03:33:23.759Z,61.28
2022-08-21T03:36:02.090Z,61.31
2022-08-21T03:38:33.248Z,61.55
2022-08-21T03:41:03.771Z,61.64
2022-08-21T03:43:32.889Z,61.66
2022-08-21T03:46:02.895Z,61.90
2022-08-21T03:48:31.993Z,62.17
2022-08-21T03:51:00.755Z,62.43
2022-08-21T03:53:29.346Z,62.49
2022-08-21T03:55:58.165Z,62.69
2022-08-21T03:58:30.162Z,62.84
2022-08-21T04:01:01.887Z,62.84
2022-08-21T04:03:31.015Z,63.10
2022-08-21T04:06:00.225Z,63.19
2022-08-21T04:08:28.661Z,63.10
2022-08-21T04:11:00.463Z,63.12
2022-08-21T04:13:30.343Z,63.21
2022-08-21T04:16:00.113Z,63.31
2022-08-21T04:18:28.813Z,63.72
2022-08-21T04:20:59.746Z,63.68
2022-08-21T04:23:28.712Z,63.80
2022-08-21T04:25:59.053Z,63.84
2022-08-21T04:28:30.472Z,63.86
2022-08-21T04:31:00.146Z,64.01
2022-08-21T04:33:28.583Z,64.15
2022-08-21T04:35:57.304Z,64.32
2022-08-21T04:38:25.690Z,64.30
2022-08-21T04:40:54.672Z,64.28
2022-08-21T04:43:24.399Z,64.30
2022-08-21T04:45:55.691Z,64.32
2022-08-21T04:48:26.165Z,64.30
2022-08-21T04:50:59.608Z,64.32
2022-08-21T04:53:35.729Z,64.29
2022-08-21T04:56:10.331Z,64.23
2022-08-21T04:58:42.552Z,64.34
2022-08-21T05:01:19.235Z,64.05
2022-08-21T05:03:49.880Z,64.57
2022-08-21T05:06:19.428Z,64.52
2022-08-21T05:08:50.965Z,64.57
2022-08-21T05:11:27.415Z,64.65
2022-08-21T05:13:57.224Z,64.62
2022-08-21T05:16:37.055Z,64.75
2022-08-21T05:19:07.260Z,64.84
2022-08-21T05:21:36.984Z,64.85
2022-08-21T05:24:05.813Z,64.92
2022-08-21T05:26:38.295Z,64.83
2022-08-21T05:29:15.137Z,64.98
2022-08-21T05:31:46.296Z,65.17
2022-08-21T05:34:16.097Z,65.22
2022-08-21T05:36:44.784Z,65.29
2022-08-21T05:39:13.187Z,65.26
2022-08-21T05:41:41.661Z,65.26
2022-08-21T05:44:10.594Z,65.44
2022-08-21T05:46:40.312Z,65.51
2022-08-21T05:49:10.212Z,65.45
2022-08-21T05:51:38.824Z,65.43
2022-08-21T05:54:07.448Z,65.18
2022-08-21T05:56:36.218Z,65.07
2022-08-21T05:59:08.725Z,64.92
2022-08-21T06:01:37.520Z,64.72
2022-08-21T06:04:06.960Z,64.49
2022-08-21T06:06:37.076Z,64.37
2022-08-21T06:09:06.093Z,64.18
2022-08-21T06:11:35.495Z,64.22
2022-08-21T06:14:05.137Z,64.13
2022-08-21T06:16:33.519Z,63.77
2022-08-21T06:19:03.063Z,63.56
2022-08-21T06:21:32.348Z,63.62
2022-08-21T06:24:02.148Z,63.74
2022-08-21T06:26:30.566Z,63.55
2022-08-21T06:28:59.207Z,63.36
2022-08-21T06:31:30.778Z,62.93
2022-08-21T06:33:59.468Z,63.01
2022-08-21T06:36:28.109Z,62.52
2022-08-21T06:38:56.992Z,62.61
2022-08-21T06:41:27.897Z,62.52
2022-08-21T06:43:58.053Z,62.37
2022-08-21T06:46:29.918Z,61.86
2022-08-21T06:48:59.181Z,62.09
2022-08-21T06:51:28.684Z,61.55
2022-08-21T06:53:59.457Z,61.81
2022-08-21T06:56:29.434Z,61.32
2022-08-21T06:59:00.205Z,61.69
2022-08-21T07:01:29.552Z,61.18
2022-08-21T07:03:58.117Z,61.13
2022-08-21T07:06:26.936Z,61.40
2022-08-21T07:08:58.934Z,61.35
2022-08-21T07:11:29.231Z,60.72
2022-08-21T07:13:58.066Z,59.85
2022-08-21T07:16:27.083Z,58.63
2022-08-21T07:18:55.522Z,57.33
2022-08-21T07:21:26.199Z,56.03
2022-08-21T07:23:55.557Z,55.26
2022-08-21T07:26:25.624Z,54.16
2022-08-21T07:28:56.188Z,53.12
2022-08-21T07:31:27.070Z,52.22
2022-08-21T07:33:55.832Z,51.84
2022-08-21T07:36:24.503Z,51.11
2022-08-21T07:38:53.287Z,50.57
2022-08-21T07:41:26.327Z,50.57
2022-08-21T07:43:56.248Z,50.54
2022-08-21T07:46:25.752Z,49.90
2022-08-21T07:48:54.473Z,50.06
2022-08-21T07:51:28.540Z,49.85
2022-08-21T07:54:00.205Z,49.51
2022-08-21T07:56:29.197Z,49.16
2022-08-21T07:58:58.935Z,48.61
2022-08-21T08:01:28.134Z,48.32
2022-08-21T08:03:57.188Z,47.70
2022-08-21T08:06:26.949Z,47.04
2022-08-21T08:08:55.358Z,46.31
2022-08-21T08:11:23.773Z,45.71
2022-08-21T08:13:54.597Z,45.05
2022-08-21T08:16:24.414Z,44.46
2022-08-21T08:18:52.781Z,44.16
2022-08-21T08:21:21.871Z,43.72
2022-08-21T08:23:50.740Z,43.34
2022-08-21T08:26:19.156Z,43.45
2022-08-21T08:28:48.709Z,42.72
2022-08-21T08:31:17.093Z,42.27
2022-08-21T08:33:46.962Z,41.97
2022-08-21T08:36:17.162Z,41.34
2022-08-21T08:38:48.889Z,40.82
2022-08-21T08:41:22.289Z,40.29
2022-08-21T08:43:55.687Z,40.35
2022-08-21T08:46:32.945Z,39.92
2022-08-21T08:49:08.798Z,39.54
2022-08-21T08:51:48.502Z,38.88
2022-08-21T08:54:32.443Z,38.88
2022-08-21T08:57:02.532Z,38.42
2022-08-21T08:59:40.589Z,37.99
2022-08-21T09:02:11.941Z,37.35
2022-08-21T09:04:42.810Z,37.25
2022-08-21T09:07:21.960Z,37.60
2022-08-21T09:10:04.104Z,36.71
2022-08-21T09:12:46.921Z,36.80
2022-08-21T09:15:30.523Z,36.36
2022-08-21T09:18:29.197Z,36.26
2022-08-21T09:21:11.958Z,35.79
2022-08-21T09:23:52.288Z,35.94
2022-08-21T09:26:24.812Z,35.06
2022-08-21T09:28:57.099Z,34.75
2022-08-21T09:31:31.439Z,34.55
2022-08-21T09:34:01.937Z,34.08
2022-08-21T09:36:40.408Z,34.35
2022-08-21T09:39:11.045Z,33.67
2022-08-21T09:41:40.864Z,33.51
2022-08-21T09:44:10.725Z,33.06
2022-08-21T09:46:39.194Z,32.91
2022-08-21T09:49:13.443Z,32.46
2022-08-21T09:51:55.190Z,32.79
2022-08-21T09:54:31.384Z,32.38
2022-08-21T09:57:20.365Z,31.07
2022-08-21T09:59:49.615Z,31.14
2022-08-21T10:02:32.797Z,31.40
2022-08-21T10:05:04.145Z,30.94
2022-08-21T10:07:38.402Z,31.33
2022-08-21T10:10:10.741Z,31.26
2022-08-21T10:12:51.853Z,31.21
2022-08-21T10:15:26.429Z,30.87
2022-08-21T10:18:05.937Z,30.70
2022-08-21T10:20:46.257Z,30.29
2022-08-21T10:23:37.764Z,30.61
2022-08-21T10:26:22.979Z,30.26
2022-08-21T10:29:02.597Z,29.81
2022-08-21T10:31:45.211Z,29.40
2022-08-21T10:34:31.652Z,29.29
2022-08-21T10:37:19.885Z,28.96
2022-08-21T10:40:03.089Z,28.87
2022-08-21T10:42:41.134Z,28.70
2022-08-21T10:45:24.437Z,28.90
2022-08-21T10:47:59.137Z,28.54
2022-08-21T10:50:33.978Z,28.86
2022-08-21T10:53:18.020Z,28.83
2022-08-21T10:55:58.195Z,28.89
2022-08-21T10:58:32.244Z,28.29
2022-08-21T11:01:14.203Z,28.22
2022-08-21T11:03:47.699Z,27.62
2022-08-21T11:06:22.864Z,27.42
2022-08-21T11:09:00.620Z,27.09
2022-08-21T11:11:38.252Z,27.08
2022-08-21T11:14:22.576Z,26.51
2022-08-21T11:16:59.431Z,26.44
2022-08-21T11:19:34.205Z,26.39
2022-08-21T11:22:15.402Z,26.46
2022-08-21T11:24:52.672Z,26.09
2022-08-21T11:27:28.674Z,25.83
2022-08-21T11:30:00.885Z,25.76
2022-08-21T11:32:57.452Z,25.81
2022-08-21T11:35:39.839Z,25.42
2022-08-21T11:38:30.481Z,25.09
2022-08-21T11:41:25.401Z,24.88
2022-08-21T11:44:14.091Z,25.01
2022-08-21T11:46:51.331Z,24.59
2022-08-21T11:49:43.708Z,24.80
2022-08-21T11:52:20.418Z,24.66
2022-08-21T11:54:55.502Z,24.94
2022-08-21T11:57:31.280Z,24.54
2022-08-21T12:00:09.286Z,24.83
2022-08-21T12:02:47.155Z,24.25
2022-08-21T12:05:31.898Z,24.63
2022-08-21T12:08:08.949Z,23.93
2022-08-21T12:10:41.913Z,23.79
2022-08-21T12:13:23.385Z,23.67
2022-08-21T12:16:13.852Z,23.08
2022-08-21T12:18:43.591Z,23.27
2022-08-21T12:21:26.925Z,23.51
2022-08-21T12:24:17.177Z,23.37
2022-08-21T12:26:53.099Z,23.25
2022-08-21T12:29:27.733Z,23.18
2022-08-21T12:32:02.213Z,23.10
2022-08-21T12:34:38.511Z,23.06
2022-08-21T12:37:17.401Z,22.54
2022-08-21T12:39:50.504Z,22.66
2022-08-21T12:42:24.941Z,22.07
2022-08-21T12:45:00.636Z,21.86
2022-08-21T12:47:36.844Z,21.75
2022-08-21T12:50:09.354Z,21.66
2022-08-21T12:52:46.122Z,21.49
2022-08-21T12:55:16.725Z,21.14
2022-08-21T12:57:45.103Z,20.93
2022-08-21T13:00:17.040Z,20.77
2022-08-21T13:02:51.721Z,20.46
2022-08-21T13:05:32.958Z,20.52
2022-08-21T13:08:06.481Z,20.38
2022-08-21T13:10:36.907Z,20.58
2022-08-21T13:13:12.297Z,20.89
2022-08-21T13:15:47.757Z,21.21
2022-08-21T13:18:26.257Z,21.16
2022-08-21T13:21:04.554Z,21.05
2022-08-21T13:23:33.544Z,20.96
2022-08-21T13:26:03.755Z,20.92
2022-08-21T13:28:38.660Z,20.70
2022-08-21T13:31:12.201Z,20.45
2022-08-21T13:33:43.469Z,20.28
2022-08-21T13:36:19.294Z,20.02
2022-08-21T13:38:48.498Z,19.70
2022-08-21T13:41:24.495Z,20.12
2022-08-21T13:44:03.029Z,20.69
2022-08-21T13:46:35.456Z,21.13
2022-08-21T13:49:07.977Z,21.22
2022-08-21T13:51:37.226Z,21.50
2022-08-21T13:54:23.142Z,21.38
2022-08-21T13:56:51.782Z,21.22
2022-08-21T13:59:29.857Z,21.42
2022-08-21T14:02:02.406Z,21.16
2022-08-21T14:04:40.148Z,20.48
2022-08-21T14:07:19.932Z,20.22
2022-08-21T14:09:49.485Z,20.04
2022-08-21T14:12:30.189Z,20.05
2022-08-21T14:15:00.660Z,19.75
2022-08-21T14:17:34.166Z,19.89
2022-08-21T14:20:06.363Z,19.70
2022-08-21T14:22:40.936Z,20.13
2022-08-21T14:25:15.309Z,20.45
2022-08-21T14:27:52.406Z,20.03
2022-08-21T14:30:32.582Z,20.21
2022-08-21T14:33:01.737Z,19.90
2022-08-21T14:35:31.970Z,19.82
2022-08-21T14:38:00.676Z,19.79
2022-08-21T14:40:29.465Z,19.67
2022-08-21T14:42:58.926Z,19.37
2022-08-21T14:45:31.068Z,19.25
2022-08-21T14:48:00.898Z,19.02
2022-08-21T14:50:30.813Z,18.89
2022-08-21T14:52:59.300Z,18.75
2022-08-21T14:55:29.065Z,18.77
2022-08-21T14:57:59.627Z,18.56
2022-08-21T15:00:35.735Z,18.61
2022-08-21T15:03:05.197Z,18.59
2022-08-21T15:05:34.970Z,18.48
2022-08-21T15:08:04.023Z,18.54
2022-08-21T15:10:34.868Z,18.61
2022-08-21T15:13:04.563Z,18.62
2022-08-21T15:15:40.657Z,18.63
2022-08-21T15:18:09.769Z,18.41
2022-08-21T15:20:40.254Z,18.45
2022-08-21T15:23:14.758Z,18.33
2022-08-21T15:25:44.475Z,18.51
2022-08-21T15:28:14.589Z,18.53
2022-08-21T15:30:44.828Z,18.79
2022-08-21T15:33:13.484Z,18.95
2022-08-21T15:35:43.320Z,19.23
2022-08-21T15:38:11.828Z,19.07
2022-08-21T15:40:47.737Z,19.13
2022-08-21T15:43:30.320Z,19.07
2022-08-21T15:46:01.700Z,19.09
2022-08-21T15:48:30.607Z,18.98
2022-08-21T15:51:00.334Z,18.86
2022-08-21T15:53:28.763Z,18.82
2022-08-21T15:55:57.148Z,18.78
2022-08-21T15:58:25.809Z,18.78
2022-08-21T16:00:54.193Z,18.84
2022-08-21T16:03:23.051Z,19.00
2022-08-21T16:05:53.356Z,19.16
2022-08-21T16:08:23.398Z,18.92
2022-08-21T16:10:52.892Z,19.21
2022-08-21T16:13:27.724Z,19.53
2022-08-21T16:15:56.435Z,19.24
2022-08-21T16:18:26.584Z,19.16
2022-08-21T16:20:55.406Z,19.39
2022-08-21T16:23:25.192Z,19.15
2022-08-21T16:25:53.924Z,19.55
2022-08-21T16:28:24.677Z,19.70
2022-08-21T16:30:53.404Z,19.64
2022-08-21T16:33:36.848Z,19.78
2022-08-21T16:36:07.293Z,20.42
2022-08-21T16:38:38.866Z,20.05
2022-08-21T16:41:12.107Z,20.68
2022-08-21T16:43:42.782Z,20.77
2022-08-21T16:46:14.112Z,20.99
2022-08-21T16:48:44.883Z,21.14
2022-08-21T16:51:13.835Z,21.96
2022-08-21T16:53:44.292Z,22.00
2022-08-21T16:56:16.725Z,22.59
2022-08-21T16:58:48.629Z,22.87
2022-08-21T17:01:20.971Z,23.61
2022-08-21T17:03:51.754Z,23.90
2022-08-21T17:06:22.025Z,24.13
2022-08-21T17:08:53.037Z,24.46
2022-08-21T17:11:36.494Z,24.76
2022-08-21T17:14:12.840Z,25.35
2022-08-21T17:16:45.486Z,25.47
2022-08-21T17:19:14.704Z,25.35
2022-08-21T17:21:43.344Z,26.04
2022-08-21T17:24:15.725Z,26.32
2022-08-21T17:26:45.605Z,26.04
2022-08-21T17:29:16.092Z,26.03
2022-08-21T17:31:45.648Z,26.38
2022-08-21T17:34:16.243Z,26.78
2022-08-21T17:36:44.622Z,27.01
2022-08-21T17:39:22.507Z,27.04
2022-08-21T17:42:06.496Z,27.16
2022-08-21T17:44:35.922Z,27.27
2022-08-21T17:47:04.685Z,27.47
2022-08-21T17:49:33.425Z,27.52
2022-08-21T17:52:01.853Z,27.84
2022-08-21T17:54:32.100Z,28.13
2022-08-21T17:57:01.076Z,28.28
2022-08-21T17:59:29.918Z,28.49
2022-08-21T18:02:01.436Z,28.62
2022-08-21T18:04:31.059Z,28.74
2022-08-21T18:06:59.521Z,28.97
2022-08-21T18:09:28.458Z,29.15
2022-08-21T18:12:00.107Z,29.51
2022-08-21T18:14:33.441Z,29.73
2022-08-21T18:17:03.269Z,30.04
2022-08-21T18:19:31.659Z,30.26
2022-08-21T18:22:04.428Z,30.40
2022-08-21T18:24:33.352Z,30.66
2022-08-21T18:27:04.196Z,30.57
2022-08-21T18:29:32.913Z,31.15
2022-08-21T18:32:03.221Z,31.36
2022-08-21T18:34:34.904Z,31.17
2022-08-21T18:37:05.156Z,31.48
2022-08-21T18:39:36.793Z,31.78
2022-08-21T18:42:11.984Z,31.63
2022-08-21T18:44:40.980Z,31.92
2022-08-21T18:47:14.901Z,32.14
2022-08-21T18:49:43.612Z,32.46
2022-08-21T18:52:20.284Z,32.46
2022-08-21T18:54:49.745Z,32.97
2022-08-21T18:57:20.904Z,33.14
2022-08-21T18:59:49.558Z,33.36
2022-08-21T19:02:17.913Z,33.43
2022-08-21T19:04:48.134Z,33.27
2022-08-21T19:07:19.731Z,33.62
2022-08-21T19:10:07.613Z,33.42
2022-08-21T19:12:41.521Z,33.57
2022-08-21T19:15:15.582Z,34.01
2022-08-21T19:17:47.024Z,34.06
2022-08-21T19:20:36.427Z,34.13
2022-08-21T19:23:07.433Z,34.24
2022-08-21T19:25:37.373Z,34.74
2022-08-21T19:28:14.263Z,34.74
2022-08-21T19:30:58.211Z,34.39
2022-08-21T19:33:34.074Z,34.79
2022-08-21T19:36:04.290Z,35.04
2022-08-21T19:38:32.919Z,35.76
2022-08-21T19:41:02.159Z,35.45
2022-08-21T19:43:35.165Z,35.68
2022-08-21T19:46:04.016Z,36.16
2022-08-21T19:48:33.583Z,36.15
2022-08-21T19:51:02.078Z,36.44
2022-08-21T19:53:30.443Z,36.33
2022-08-21T19:55:58.969Z,36.71
2022-08-21T19:58:38.914Z,36.38
2022-08-21T20:01:16.838Z,36.90
2022-08-21T20:03:53.812Z,37.32
2022-08-21T20:06:23.889Z,36.99
2022-08-21T20:08:54.676Z,37.53
2022-08-21T20:11:31.285Z,37.55
2022-08-21T20:14:02.124Z,37.98
2022-08-21T20:16:32.157Z,37.79
2022-08-21T20:19:03.306Z,38.30
2022-08-21T20:21:43.481Z,38.83
2022-08-21T20:24:14.707Z,39.10
2022-08-21T20:26:48.760Z,39.00
2022-08-21T20:29:23.863Z,39.40
2022-08-21T20:31:52.793Z,39.35
2022-08-21T20:34:21.328Z,39.42
2022-08-21T20:36:50.016Z,39.51
2022-08-21T20:39:23.948Z,39.46
2022-08-21T20:41:53.905Z,39.72
2022-08-21T20:44:29.657Z,39.35
2022-08-21T20:46:59.028Z,39.60
2022-08-21T20:49:34.595Z,39.44
2022-08-21T20:52:05.033Z,39.84
2022-08-21T20:54:41.627Z,39.83
2022-08-21T20:57:16.096Z,39.79
2022-08-21T20:59:54.932Z,40.03
2022-08-21T21:02:38.719Z,40.32
2022-08-21T21:05:16.112Z,40.33
2022-08-21T21:08:02.348Z,40.46
2022-08-21T21:10:38.352Z,40.71
2022-08-21T21:13:21.165Z,40.66
2022-08-21T21:15:56.596Z,40.91
2022-08-21T21:18:32.491Z,41.41
2022-08-21T21:21:06.222Z,41.11
2022-08-21T21:23:45.349Z,41.44
2022-08-21T21:26:19.385Z,41.45
2022-08-21T21:28:55.876Z,41.63
2022-08-21T21:31:29.541Z,41.81
2022-08-21T21:34:00.777Z,41.63
2022-08-21T21:36:43.791Z,41.81
2022-08-21T21:39:36.348Z,41.89
2022-08-21T21:42:12.542Z,41.69
2022-08-21T21:45:09.611Z,41.77
2022-08-21T21:47:59.060Z,42.17
2022-08-21T21:50:49.551Z,42.02
2022-08-21T21:53:37.994Z,42.51
2022-08-21T21:56:18.449Z,42.73
2022-08-21T21:59:29.924Z,42.86
2022-08-21T22:02:06.996Z,43.16
2022-08-21T22:04:50.967Z,43.45
2022-08-21T22:07:32.082Z,43.75
2022-08-21T22:10:30.058Z,44.21
2022-08-21T22:13:13.612Z,44.66
2022-08-21T22:15:55.041Z,44.23
2022-08-21T22:18:28.001Z,45.00
2022-08-21T22:21:05.290Z,44.99
2022-08-21T22:23:39.535Z,45.39
2022-08-21T22:26:14.488Z,45.63
2022-08-21T22:28:47.701Z,45.96
2022-08-21T22:31:21.624Z,45.97
2022-08-21T22:34:17.998Z,45.88
2022-08-21T22:36:59.391Z,46.19
2022-08-21T22:39:38.584Z,46.50
2022-08-21T22:42:13.519Z,46.49
2022-08-21T22:44:52.900Z,46.35
2022-08-21T22:47:24.988Z,46.58
2022-08-21T22:49:59.636Z,46.64
2022-08-21T22:52:35.269Z,46.66
2022-08-21T22:55:24.165Z,46.52
2022-08-21T22:58:10.526Z,46.55
2022-08-21T23:00:50.549Z,46.68
2022-08-21T23:03:33.987Z,46.47
2022-08-21T23:06:13.067Z,46.51
2022-08-21T23:08:44.068Z,46.56
2022-08-21T23:11:17.757Z,46.51
2022-08-21T23:13:51.016Z,46.52
2022-08-21T23:19:50.789Z,46.05
2022-08-21T23:22:37.292Z,46.39
2022-08-21T23:25:32.643Z,46.23
2022-08-21T23:28:13.629Z,46.23
2022-08-21T23:30:54.432Z,46.09
2022-08-21T23:33:44.845Z,46.11
2022-08-21T23:36:41.088Z,46.05
2022-08-21T23:39:26.069Z,45.93
2022-08-21T23:42:02.185Z,45.92
2022-08-21T23:44:47.317Z,45.96
2022-08-21T23:47:34.977Z,46.00
2022-08-21T23:50:14.012Z,45.93
2022-08-21T23:53:00.688Z,45.93
2022-08-21T23:56:01.112Z,45.97
2022-08-21T23:58:45.389Z,45.86
